createdAt,value
2022-11-05T00:01:14.143Z,10.30
2022-11-05T00:04:00.930Z,10.30
2022-11-05T00:06:48.025Z,10.28
2022-11-05T00:09:31.176Z,10.20
2022-11-05T00:12:30.220Z,10.20
2022-11-05T00:15:16.694Z,10.20
2022-11-05T00:17:44.649Z,10.20
2022-11-05T00:20:13.805Z,10.22
2022-11-05T00:23:00.475Z,10.24
2022-11-05T00:25:30.068Z,10.28
2022-11-05T00:28:02.240Z,10.28
2022-11-05T00:30:30.558Z,10.30
2022-11-05T00:33:04.923Z,10.30
2022-11-05T00:35:32.922Z,10.30
2022-11-05T00:38:00.864Z,10.28
2022-11-05T00:40:28.909Z,10.22
2022-11-05T00:43:15.746Z,10.20
2022-11-05T00:45:45.223Z,10.20
2022-11-05T00:48:32.573Z,10.20
2022-11-05T00:51:00.662Z,10.20
2022-11-05T00:53:28.612Z,10.20
2022-11-05T00:55:56.729Z,10.14
2022-11-05T00:58:24.672Z,10.10
2022-11-05T01:00:54.519Z,10.10
2022-11-05T01:03:30.809Z,10.12
2022-11-05T01:06:11.227Z,10.10
2022-11-05T01:08:43.371Z,10.10
2022-11-05T01:11:37.364Z,10.10
2022-11-05T01:14:16.242Z,10.10
2022-11-05T01:16:45.652Z,10.10
2022-11-05T01:19:14.553Z,10.10
2022-11-05T01:21:44.673Z,10.10
2022-11-05T01:24:12.644Z,10.10
2022-11-05T01:26:41.060Z,10.10
2022-11-05T01:29:10.880Z,10.10
2022-11-05T01:31:39.004Z,10.10
2022-11-05T01:34:06.972Z,10.10
2022-11-05T01:36:34.790Z,10.10
2022-11-05T01:39:02.909Z,10.10
2022-11-05T01:41:33.064Z,10.10
2022-11-05T01:44:05.001Z,10.10
2022-11-05T01:46:42.968Z,10.10
2022-11-05T01:49:17.982Z,10.10
2022-11-05T01:51:46.117Z,10.10
2022-11-05T01:54:16.908Z,10.10
2022-11-05T01:56:56.684Z,10.10
2022-11-05T01:59:39.615Z,10.10
2022-11-05T02:02:09.518Z,10.10
2022-11-05T02:04:45.056Z,10.10
2022-11-05T02:07:13.218Z,10.08
2022-11-05T02:09:47.299Z,10.04
2022-11-05T02:12:15.533Z,10.06
2022-11-05T02:14:43.472Z,10.04
2022-11-05T02:17:45.046Z,10.10
2022-11-05T02:20:41.996Z,10.10
2022-11-05T02:23:47.574Z,10.10
2022-11-05T02:26:59.541Z,10.12
2022-11-05T02:30:09.819Z,10.14
2022-11-05T02:36:15.271Z,10.20
2022-11-05T02:39:39.665Z,10.20
2022-11-05T02:42:45.004Z,10.20
2022-11-05T02:45:40.010Z,10.20
2022-11-05T02:48:50.481Z,10.20
2022-11-05T02:51:54.189Z,10.20
2022-11-05T02:54:30.647Z,10.14
2022-11-05T02:56:59.072Z,10.10
2022-11-05T02:59:27.724Z,10.10
2022-11-05T03:01:56.079Z,10.10
2022-11-05T03:04:24.282Z,10.10
2022-11-05T03:07:38.655Z,10.00
2022-11-05T03:10:46.268Z,10.00
2022-11-05T03:13:21.603Z,9.90
2022-11-05T03:15:58.959Z,9.90
2022-11-05T03:18:39.025Z,9.90
2022-11-05T03:21:20.180Z,9.82
2022-11-05T03:24:08.273Z,9.80
2022-11-05T03:26:46.406Z,9.80
2022-11-05T03:29:25.667Z,9.80
2022-11-05T03:31:55.533Z,9.76
2022-11-05T03:34:50.104Z,9.70
2022-11-05T03:37:19.594Z,9.70
2022-11-05T03:39:51.589Z,9.70
2022-11-05T03:42:24.010Z,9.70
2022-11-05T03:44:54.755Z,9.70
2022-11-05T03:47:25.905Z,9.70
2022-11-05T03:50:41.103Z,9.70
2022-11-05T03:53:32.498Z,9.70
2022-11-05T03:56:46.421Z,9.70
2022-11-05T03:59:14.489Z,9.70
2022-11-05T04:01:42.718Z,9.70
2022-11-05T04:04:11.253Z,9.70
2022-11-05T04:07:01.459Z,9.70
2022-11-05T04:09:48.757Z,9.70
2022-11-05T04:12:36.495Z,9.68
2022-11-05T04:15:07.826Z,9.60
2022-11-05T04:17:35.735Z,9.60
2022-11-05T04:20:22.907Z,9.60
2022-11-05T04:23:22.343Z,9.60
2022-11-05T04:25:50.439Z,9.60
2022-11-05T04:28:18.365Z,9.60
2022-11-05T04:30:46.543Z,9.60
2022-11-05T04:33:16.243Z,9.60
2022-11-05T04:35:49.078Z,9.56
2022-11-05T04:38:19.156Z,9.56
2022-11-05T04:40:47.934Z,9.60
2022-11-05T04:43:18.926Z,9.60
2022-11-05T04:45:47.160Z,9.60
2022-11-05T04:48:15.309Z,9.60
2022-11-05T04:50:43.504Z,9.60
2022-11-05T04:53:12.085Z,9.60
2022-11-05T04:55:40.239Z,9.60
2022-11-05T04:58:08.921Z,9.60
2022-11-05T05:00:39.246Z,9.60
2022-11-05T05:03:07.367Z,9.60
2022-11-05T05:05:35.706Z,9.60
2022-11-05T05:08:06.673Z,9.60
2022-11-05T05:10:38.616Z,9.60
2022-11-05T05:13:06.804Z,9.60
2022-11-05T05:15:34.827Z,9.60
2022-11-05T05:18:02.780Z,9.60
2022-11-05T05:20:49.643Z,9.60
2022-11-05T05:23:17.919Z,9.62
2022-11-05T05:25:46.189Z,9.70
2022-11-05T05:28:14.159Z,9.70
2022-11-05T05:30:42.270Z,9.70
2022-11-05T05:33:10.715Z,9.70
2022-11-05T05:35:39.298Z,9.70
2022-11-05T05:38:07.247Z,9.70
2022-11-05T05:40:35.236Z,9.74
2022-11-05T05:43:03.209Z,9.76
2022-11-05T05:45:31.165Z,9.80
2022-11-05T05:47:59.054Z,9.80
2022-11-05T05:50:26.898Z,9.80
2022-11-05T05:52:54.834Z,9.80
2022-11-05T05:55:23.280Z,9.80
2022-11-05T05:57:51.367Z,9.80
2022-11-05T06:00:19.433Z,9.82
2022-11-05T06:02:47.626Z,9.82
2022-11-05T06:05:16.045Z,9.86
2022-11-05T06:07:44.019Z,9.90
2022-11-05T06:10:12.049Z,9.90
2022-11-05T06:12:40.027Z,9.90
2022-11-05T06:15:08.711Z,9.90
2022-11-05T06:17:36.704Z,9.90
2022-11-05T06:20:06.025Z,9.98
2022-11-05T06:22:33.888Z,10.00
2022-11-05T06:25:02.056Z,10.00
2022-11-05T06:27:29.985Z,10.00
2022-11-05T06:29:59.124Z,10.02
2022-11-05T06:32:27.280Z,10.10
2022-11-05T06:34:55.289Z,10.10
2022-11-05T06:37:24.046Z,10.10
2022-11-05T06:39:52.042Z,10.20
2022-11-05T06:42:20.041Z,10.20
2022-11-05T06:44:48.256Z,10.20
2022-11-05T06:47:16.111Z,10.28
2022-11-05T06:49:44.526Z,10.30
2022-11-05T06:52:13.589Z,10.30
2022-11-05T06:54:42.514Z,10.36
2022-11-05T06:57:11.329Z,10.40
2022-11-05T06:59:39.498Z,10.40
2022-11-05T07:02:07.695Z,10.42
2022-11-05T07:04:35.752Z,10.46
2022-11-05T07:07:03.791Z,10.50
2022-11-05T07:09:32.762Z,10.50
2022-11-05T07:12:00.722Z,10.50
2022-11-05T07:14:28.992Z,10.50
2022-11-05T07:16:57.780Z,10.50
2022-11-05T07:19:25.810Z,10.52
2022-11-05T07:21:55.370Z,10.54
2022-11-05T07:24:28.137Z,10.52
2022-11-05T07:26:58.264Z,10.50
2022-11-05T07:29:29.649Z,10.52
2022-11-05T07:32:00.564Z,10.50
2022-11-05T07:34:28.737Z,10.50
2022-11-05T07:36:59.993Z,10.50
2022-11-05T07:39:28.588Z,10.50
2022-11-05T07:41:57.950Z,10.50
2022-11-05T07:44:31.972Z,10.50
2022-11-05T07:46:59.804Z,10.40
2022-11-05T07:49:27.702Z,10.40
2022-11-05T07:51:55.575Z,10.30
2022-11-05T07:54:26.603Z,10.30
2022-11-05T07:56:55.489Z,10.30
2022-11-05T07:59:23.353Z,10.30
2022-11-05T08:01:53.012Z,10.20
2022-11-05T08:04:21.652Z,10.20
2022-11-05T08:06:49.823Z,10.20
2022-11-05T08:09:18.610Z,10.20
2022-11-05T08:11:49.575Z,10.10
2022-11-05T08:14:20.098Z,10.10
2022-11-05T08:16:48.042Z,10.10
2022-11-05T08:19:15.926Z,10.10
2022-11-05T08:21:43.735Z,10.10
2022-11-05T08:24:11.755Z,10.10
2022-11-05T08:26:39.451Z,10.20
2022-11-05T08:29:07.267Z,10.20
2022-11-05T08:31:37.265Z,10.26
2022-11-05T08:34:05.166Z,10.30
2022-11-05T08:36:35.313Z,10.30
2022-11-05T08:39:03.324Z,10.30
2022-11-05T08:41:31.214Z,10.30
2022-11-05T08:43:59.011Z,10.36
2022-11-05T08:46:26.804Z,10.30
2022-11-05T08:48:54.655Z,10.30
2022-11-05T08:51:22.478Z,10.30
2022-11-05T08:53:50.305Z,10.30
2022-11-05T08:56:18.315Z,10.30
2022-11-05T08:58:46.689Z,10.20
2022-11-05T09:01:14.844Z,10.20
2022-11-05T09:03:43.168Z,10.28
2022-11-05T09:06:11.411Z,10.30
2022-11-05T09:08:39.249Z,10.30
2022-11-05T09:11:07.157Z,10.30
2022-11-05T09:13:35.119Z,10.30
2022-11-05T09:16:03.719Z,10.30
2022-11-05T09:18:31.669Z,10.30
2022-11-05T09:20:59.492Z,10.30
2022-11-05T09:23:27.404Z,10.30
2022-11-05T09:25:55.360Z,10.34
2022-11-05T09:28:24.708Z,10.40
2022-11-05T09:30:53.115Z,10.40
2022-11-05T09:33:24.023Z,10.50
2022-11-05T09:35:52.867Z,10.50
2022-11-05T09:38:20.975Z,10.50
2022-11-05T09:40:58.123Z,10.50
2022-11-05T09:43:37.793Z,10.52
2022-11-05T09:46:12.650Z,10.60
2022-11-05T09:48:40.771Z,10.58
2022-11-05T09:51:08.639Z,10.60
2022-11-05T09:53:41.218Z,10.60
2022-11-05T09:56:31.482Z,10.60
2022-11-05T09:59:14.113Z,10.60
2022-11-05T10:01:42.395Z,10.60
2022-11-05T10:04:21.206Z,10.66
2022-11-05T10:06:54.335Z,10.66
2022-11-05T10:09:52.170Z,10.60
2022-11-05T10:12:32.195Z,10.60
2022-11-05T10:15:22.723Z,10.62
2022-11-05T10:17:58.986Z,10.70
2022-11-05T10:20:36.690Z,10.74
2022-11-05T10:23:17.464Z,10.80
2022-11-05T10:25:55.115Z,10.88
2022-11-05T10:28:29.853Z,10.90
2022-11-05T10:31:07.318Z,10.90
2022-11-05T10:33:54.957Z,10.88
2022-11-05T10:36:34.342Z,10.80
2022-11-05T10:39:11.678Z,10.80
2022-11-05T10:42:19.223Z,10.76
2022-11-05T10:44:53.941Z,10.70
2022-11-05T10:47:47.000Z,10.70
2022-11-05T10:50:19.176Z,10.70
2022-11-05T10:53:16.300Z,10.70
2022-11-05T10:55:47.106Z,10.70
2022-11-05T10:58:18.137Z,10.70
2022-11-05T11:00:52.365Z,10.68
2022-11-05T11:03:46.819Z,10.70
2022-11-05T11:06:28.558Z,10.70
2022-11-05T11:09:06.596Z,10.70
2022-11-05T11:11:38.198Z,10.70
2022-11-05T11:14:12.367Z,10.70
2022-11-05T11:16:45.459Z,10.70
2022-11-05T11:19:33.693Z,10.70
2022-11-05T11:22:04.633Z,10.70
2022-11-05T11:24:50.317Z,10.60
2022-11-05T11:27:26.245Z,10.70
2022-11-05T11:30:05.180Z,10.60
2022-11-05T11:32:41.664Z,10.70
2022-11-05T11:35:21.434Z,10.70
2022-11-05T11:37:53.956Z,10.70
2022-11-05T11:40:31.467Z,10.70
2022-11-05T11:43:03.353Z,10.60
2022-11-05T11:45:45.787Z,10.60
2022-11-05T11:48:38.187Z,10.60
2022-11-05T11:51:22.236Z,10.60
2022-11-05T11:53:50.098Z,10.60
2022-11-05T11:56:20.055Z,10.60
2022-11-05T11:58:53.994Z,10.70
2022-11-05T12:01:52.323Z,10.70
2022-11-05T12:05:24.323Z,10.68
2022-11-05T12:07:55.544Z,10.62
2022-11-05T12:10:55.616Z,10.60
2022-11-05T12:13:51.512Z,10.60
2022-11-05T12:16:25.129Z,10.60
2022-11-05T12:19:21.597Z,10.60
2022-11-05T12:22:10.625Z,10.58
2022-11-05T12:25:21.611Z,10.50
2022-11-05T12:28:11.034Z,10.50
2022-11-05T12:30:53.584Z,10.50
2022-11-05T12:33:31.851Z,10.50
2022-11-05T12:37:10.149Z,10.40
2022-11-05T12:40:12.862Z,10.40
2022-11-05T12:42:50.023Z,10.40
2022-11-05T12:45:27.414Z,10.38
2022-11-05T12:48:10.853Z,10.32
2022-11-05T12:51:10.396Z,10.34
2022-11-05T12:54:09.459Z,10.30
2022-11-05T12:56:57.815Z,10.30
2022-11-05T13:00:04.621Z,10.20
2022-11-05T13:02:45.438Z,10.20
2022-11-05T13:05:28.338Z,10.26
2022-11-05T13:08:08.637Z,10.30
2022-11-05T13:10:52.455Z,10.20
2022-11-05T13:13:38.379Z,10.28
2022-11-05T13:16:22.318Z,10.26
2022-11-05T13:18:58.025Z,10.30
2022-11-05T13:21:29.079Z,10.26
2022-11-05T13:24:22.065Z,10.20
2022-11-05T13:27:11.494Z,10.20
2022-11-05T13:33:15.096Z,10.26
2022-11-05T13:36:34.126Z,10.30
2022-11-05T13:39:17.254Z,10.30
2022-11-05T13:42:03.810Z,10.30
2022-11-05T13:44:58.351Z,10.38
2022-11-05T13:48:15.644Z,10.32
2022-11-05T13:51:28.875Z,10.32
2022-11-05T13:54:34.764Z,10.30
2022-11-05T13:57:51.745Z,10.30
2022-11-05T14:00:22.553Z,10.30
2022-11-05T14:02:57.835Z,10.20
2022-11-05T14:05:38.911Z,10.20
2022-11-05T14:08:18.088Z,10.20
2022-11-05T14:11:07.908Z,10.20
2022-11-05T14:13:38.534Z,10.20
2022-11-05T14:16:21.520Z,10.20
2022-11-05T14:19:20.338Z,10.20
2022-11-05T14:21:52.035Z,10.20
2022-11-05T14:24:25.054Z,10.20
2022-11-05T14:27:02.379Z,10.10
2022-11-05T14:29:46.290Z,10.10
2022-11-05T14:32:17.055Z,10.10
2022-11-05T14:35:21.481Z,10.10
2022-11-05T14:37:54.132Z,10.04
2022-11-05T14:40:21.954Z,10.00
2022-11-05T14:42:55.324Z,10.00
2022-11-05T14:45:35.089Z,10.00
2022-11-05T14:48:27.327Z,9.98
2022-11-05T14:50:55.181Z,9.94
2022-11-05T14:53:34.657Z,9.90
2022-11-05T14:56:13.020Z,9.90
2022-11-05T14:58:42.450Z,9.90
2022-11-05T15:01:13.370Z,9.90
2022-11-05T15:03:45.825Z,9.90
2022-11-05T15:06:27.219Z,9.90
2022-11-05T15:09:13.541Z,9.88
2022-11-05T15:11:56.964Z,9.82
2022-11-05T15:14:32.118Z,9.80
2022-11-05T15:17:34.761Z,9.80
2022-11-05T15:20:22.278Z,9.80
2022-11-05T15:23:01.350Z,9.80
2022-11-05T15:25:42.142Z,9.80
2022-11-05T15:28:40.778Z,9.80
2022-11-05T15:31:14.731Z,9.80
2022-11-05T15:33:44.956Z,9.80
2022-11-05T15:36:29.468Z,9.80
2022-11-05T15:39:27.470Z,9.80
2022-11-05T15:41:46.658Z,9.80
2022-11-05T15:44:26.087Z,9.80
2022-11-05T15:47:13.610Z,9.80
2022-11-05T15:49:48.276Z,9.80
2022-11-05T15:52:19.566Z,9.80
2022-11-05T15:55:08.358Z,9.80
2022-11-05T15:57:40.423Z,9.80
2022-11-05T16:00:19.775Z,9.78
2022-11-05T16:02:59.237Z,9.80
2022-11-05T16:05:30.459Z,9.76
2022-11-05T16:07:59.750Z,9.72
2022-11-05T16:10:34.590Z,9.74
2022-11-05T16:13:32.280Z,9.70
2022-11-05T16:16:03.452Z,9.78
2022-11-05T16:18:34.851Z,9.74
2022-11-05T16:21:07.344Z,9.70
2022-11-05T16:23:59.279Z,9.72
2022-11-05T16:29:39.856Z,9.70
2022-11-05T16:32:31.544Z,9.72
2022-11-05T16:35:02.131Z,9.72
2022-11-05T16:37:37.243Z,9.70
2022-11-05T16:40:23.610Z,9.70
2022-11-05T16:42:53.395Z,9.72
2022-11-05T16:45:24.467Z,9.70
2022-11-05T16:47:53.686Z,9.70
2022-11-05T16:50:32.216Z,9.70
2022-11-05T16:53:00.114Z,9.70
2022-11-05T16:55:28.154Z,9.70
2022-11-05T16:57:56.116Z,9.70
2022-11-05T17:00:24.469Z,9.70
2022-11-05T17:02:52.861Z,9.70
2022-11-05T17:05:32.706Z,9.70
2022-11-05T17:08:01.440Z,9.70
2022-11-05T17:10:29.409Z,9.70
2022-11-05T17:12:57.557Z,9.70
2022-11-05T17:15:31.189Z,9.70
2022-11-05T17:17:59.562Z,9.70
2022-11-05T17:20:40.677Z,9.70
2022-11-05T17:23:11.285Z,9.70
2022-11-05T17:25:41.195Z,9.70
2022-11-05T17:28:09.839Z,9.70
2022-11-05T17:30:41.156Z,9.70
2022-11-05T17:33:11.446Z,9.70
2022-11-05T17:35:41.619Z,9.70
2022-11-05T17:38:10.714Z,9.70
2022-11-05T17:40:39.303Z,9.70
2022-11-05T17:43:07.778Z,9.70
2022-11-05T17:45:42.417Z,9.70
2022-11-05T17:48:10.782Z,9.70
2022-11-05T17:50:43.998Z,9.70
2022-11-05T17:53:12.596Z,9.70
2022-11-05T17:55:44.947Z,9.70
2022-11-05T17:58:13.041Z,9.70
2022-11-05T18:00:41.280Z,9.70
2022-11-05T18:03:10.913Z,9.70
2022-11-05T18:05:40.214Z,9.70
2022-11-05T18:08:08.870Z,9.70
2022-11-05T18:10:38.883Z,9.70
2022-11-05T18:13:06.930Z,9.70
2022-11-05T18:15:36.495Z,9.70
2022-11-05T18:18:04.531Z,9.70
2022-11-05T18:20:33.048Z,9.70
2022-11-05T18:23:00.982Z,9.70
2022-11-05T18:25:28.950Z,9.70
2022-11-05T18:27:56.968Z,9.70
2022-11-05T18:30:24.884Z,9.70
2022-11-05T18:32:54.357Z,9.70
2022-11-05T18:35:23.494Z,9.70
2022-11-05T18:37:51.352Z,9.70
2022-11-05T18:40:19.421Z,9.70
2022-11-05T18:42:48.351Z,9.68
2022-11-05T18:45:16.342Z,9.64
2022-11-05T18:47:44.273Z,9.60
2022-11-05T18:50:12.322Z,9.60
2022-11-05T18:52:40.492Z,9.60
2022-11-05T18:55:09.435Z,9.60
2022-11-05T18:57:37.352Z,9.60
2022-11-05T19:00:06.226Z,9.60
2022-11-05T19:02:34.197Z,9.60
2022-11-05T19:07:52.270Z,9.50
2022-11-05T19:10:20.578Z,9.50
2022-11-05T19:12:50.286Z,9.50
2022-11-05T19:15:18.632Z,9.50
2022-11-05T19:17:46.601Z,9.50
2022-11-05T19:20:17.056Z,9.46
2022-11-05T19:22:44.967Z,9.40
2022-11-05T19:25:18.024Z,9.40
2022-11-05T19:27:46.552Z,9.40
2022-11-05T19:30:14.745Z,9.40
2022-11-05T19:32:42.807Z,9.40
2022-11-05T19:35:11.521Z,9.40
2022-11-05T19:37:39.464Z,9.40
2022-11-05T19:40:09.237Z,9.40
2022-11-05T19:42:37.309Z,9.40
2022-11-05T19:45:23.452Z,9.34
2022-11-05T19:47:54.288Z,9.30
2022-11-05T19:50:22.653Z,9.30
2022-11-05T19:52:50.726Z,9.30
2022-11-05T19:55:18.900Z,9.30
2022-11-05T19:57:46.869Z,9.30
2022-11-05T20:00:15.623Z,9.30
2022-11-05T20:02:46.154Z,9.30
2022-11-05T20:05:14.602Z,9.22
2022-11-05T20:07:45.922Z,9.20
2022-11-05T20:10:18.182Z,9.20
2022-11-05T20:12:46.145Z,9.20
2022-11-05T20:15:15.718Z,9.20
2022-11-05T20:17:50.333Z,9.20
2022-11-05T20:20:18.940Z,9.20
2022-11-05T20:22:47.543Z,9.16
2022-11-05T20:25:33.153Z,9.18
2022-11-05T20:28:01.194Z,9.14
2022-11-05T20:30:29.592Z,9.10
2022-11-05T20:32:57.959Z,9.10
2022-11-05T20:35:25.929Z,9.10
2022-11-05T20:37:54.450Z,9.10
2022-11-05T20:40:22.703Z,9.10
2022-11-05T20:42:50.650Z,9.10
2022-11-05T20:45:18.539Z,9.10
2022-11-05T20:47:46.685Z,9.06
2022-11-05T20:50:14.688Z,9.10
2022-11-05T20:52:42.734Z,9.04
2022-11-05T20:55:11.103Z,9.06
2022-11-05T20:57:39.198Z,9.00
2022-11-05T21:00:08.377Z,9.06
2022-11-05T21:02:38.505Z,9.06
2022-11-05T21:05:10.612Z,9.08
2022-11-05T21:07:38.733Z,9.04
2022-11-05T21:10:07.982Z,9.02
2022-11-05T21:12:36.302Z,9.04
2022-11-05T21:15:05.769Z,9.00
2022-11-05T21:17:33.879Z,9.00
2022-11-05T21:20:02.279Z,9.00
2022-11-05T21:22:30.846Z,9.00
2022-11-05T21:24:58.792Z,9.00
2022-11-05T21:27:26.789Z,9.00
2022-11-05T21:29:54.657Z,9.00
2022-11-05T21:32:22.653Z,8.90
2022-11-05T21:34:50.590Z,8.90
2022-11-05T21:37:20.516Z,8.90
2022-11-05T21:39:48.556Z,8.80
2022-11-05T21:42:16.641Z,8.80
2022-11-05T21:44:44.616Z,8.80
2022-11-05T21:47:13.047Z,8.80
2022-11-05T21:49:40.869Z,8.80
2022-11-05T21:52:30.654Z,8.70
2022-11-05T21:55:34.098Z,8.70
2022-11-05T21:58:28.323Z,8.68
2022-11-05T22:00:56.397Z,8.60
2022-11-05T22:03:24.560Z,8.60
2022-11-05T22:05:52.909Z,8.60
2022-11-05T22:08:20.916Z,8.50
2022-11-05T22:10:48.886Z,8.50
2022-11-05T22:13:16.801Z,8.50
2022-11-05T22:15:55.422Z,8.50
2022-11-05T22:18:23.309Z,8.50
2022-11-05T22:20:51.311Z,8.50
2022-11-05T22:23:19.180Z,8.48
2022-11-05T22:25:47.251Z,8.40
2022-11-05T22:28:15.417Z,8.40
2022-11-05T22:30:43.703Z,8.38
2022-11-05T22:33:11.658Z,8.32
2022-11-05T22:35:39.521Z,8.32
2022-11-05T22:38:07.383Z,8.34
2022-11-05T22:40:35.559Z,8.30
2022-11-05T22:43:04.528Z,8.32
2022-11-05T22:45:36.072Z,8.30
2022-11-05T22:48:08.599Z,8.30
2022-11-05T22:50:36.595Z,8.30
2022-11-05T22:53:05.639Z,8.28
2022-11-05T22:55:34.959Z,8.20
2022-11-05T22:58:03.170Z,8.20
2022-11-05T23:00:36.624Z,8.20
2022-11-05T23:03:04.958Z,8.20
2022-11-05T23:05:36.491Z,8.18
2022-11-05T23:08:24.067Z,8.12
2022-11-05T23:11:11.264Z,8.10
2022-11-05T23:13:39.259Z,8.10
2022-11-05T23:16:26.909Z,8.10
2022-11-05T23:19:13.552Z,8.10
2022-11-05T23:22:00.089Z,8.10
2022-11-05T23:24:27.937Z,8.10
2022-11-05T23:26:58.085Z,8.10
2022-11-05T23:29:28.060Z,8.10
2022-11-05T23:32:17.198Z,8.10
2022-11-05T23:34:45.088Z,8.08
2022-11-05T23:37:31.840Z,8.00
2022-11-05T23:39:59.672Z,8.00
2022-11-05T23:42:46.337Z,8.00
2022-11-05T23:45:34.180Z,8.00
2022-11-05T23:48:35.440Z,7.96
2022-11-05T23:51:11.057Z,7.90
2022-11-05T23:53:40.770Z,7.90
2022-11-05T23:56:13.505Z,7.90
2022-11-05T23:58:43.663Z,7.90
